This demonstration page uses our WeatherBlox Daily Observations layout. Learn more.

39.29038, -76.61219

Hourly Observations for April 30, 2019

Temp ( °F °C ) Dew Point ( °F °C ) Humidity (%) Winds ( mph kmh ) Pressure ( in mb ) Visibility ( mi km ) Precip ( " mm )
12:54 am 00:54 undefined 56 13.3 50 10 81 81 undefined N/A 30.19 1022 N/A 0 0
1:54 am 01:54 undefined 56 13.3 50 10 81 81 undefined N/A 30.17 1022 N/A 0 0
3:54 am 03:54 undefined 56 13.3 51 10.6 84 84 undefined N/A 30.13 1020 N/A 0 0
4:54 am 04:54 undefined 56 13.3 51 10.6 84 84 undefined N/A 30.14 1021 N/A 0 0
5:54 am 05:54 undefined 56 13.3 51 10.6 84 84 undefined N/A 30.15 1021 N/A 0 0
6:54 am 06:54 undefined 56 13.3 51 10.6 84 84 undefined N/A 30.17 1022 N/A 0 0
7:54 am 07:54 undefined 58 14.4 52 11.1 81 81 undefined N/A 30.18 1022 N/A 0 0
8:54 am 08:54 undefined 61 16.1 52 11.1 72 72 undefined N/A 30.19 1022 N/A 0 0
9:54 am 09:54 undefined 66 18.9 54 12.2 65 65 undefined N/A 30.19 1023 N/A 0 0
10:54 am 10:54 undefined 70 21.1 55 12.8 59 59 undefined N/A 30.2 1023 N/A 0 0
11:54 am 11:54 undefined 75 23.9 55 12.8 50 50 undefined N/A 30.19 1022 N/A 0 0
12:54 pm 12:54 undefined 78 25.6 56 13.3 47 47 undefined N/A 30.18 1022 N/A 0 0
1:54 pm 13:54 undefined 78 25.6 56 13.3 47 47 undefined N/A 30.18 1022 N/A 0 0
3:54 pm 15:54 undefined 78 25.6 59 15 52 52 undefined N/A 30.17 1022 N/A 0 0
4:54 pm 16:54 undefined 77 25 57 13.9 50 50 undefined N/A 30.17 1022 N/A 0 0
5:54 pm 17:54 undefined 75 23.9 58 14.4 55 55 undefined N/A 30.2 1023 N/A 0 0
6:54 pm 18:54 undefined 75 23.9 56 13.3 52 52 undefined N/A 30.22 1023 N/A 0 0
7:54 pm 19:54 undefined 74 23.3 55 12.8 52 52 undefined N/A 30.26 1025 N/A 0 0
8:54 pm 20:54 undefined 71 21.7 57 13.9 61 61 undefined N/A 30.25 1025 N/A 0.01 0.254
9:54 pm 21:54 undefined 70 21.1 57 13.9 64 64 undefined N/A 30.29 1026 N/A 0 0
10:54 pm 22:54 undefined 65 18.3 56 13.3 73 73 undefined N/A 30.3 1026 N/A 0 0
11:54 pm 23:54 undefined 62 16.7 55 12.8 78 78 undefined N/A 30.33 1027 N/A 0 0

Powered by AerisWeather